Time;durP1;ratioP1;P1;durP2;ratioP2;P2;SDS_P1;SDS_P2;PMS_P1;PMS_P2;Temp;Humidity;BMP_temperature;BMP_pressure;BME280_temperature;BME280_humidity;BME280_pressure;Samples;Min_cycle;Max_cycle;Signal;HPM_P1;HPM_P2
2021/05/01 00:01:16;;;;;;;21.70;16.50;;;7.10;99.90;;;7.64;65.08;93787.16;5084714;28;20535;-65
2021/05/01 00:03:42;;;;;;;18.03;14.43;;;7.10;99.90;;;7.66;64.49;93773.72;5071447;28;20204;-66
2021/05/01 00:06:09;;;;;;;19.97;15.20;;;7.20;99.90;;;7.60;65.03;93780.00;5047752;28;20187;-69
2021/05/01 00:08:34;;;;;;;19.20;14.40;;;7.10;99.90;;;7.53;65.12;93763.56;5063236;28;20222;-70
2021/05/01 00:11:02;;;;;;;20.03;14.57;;;7.00;99.90;;;7.63;64.50;93764.47;5048844;28;20201;-66
2021/05/01 00:13:30;;;;;;;20.50;14.07;;;7.10;99.90;;;7.63;65.03;93753.91;5059597;28;20922;-67
2021/05/01 00:15:58;;;;;;;21.60;15.10;;;7.10;99.90;;;7.73;64.77;93758.47;5092387;28;20198;-69
2021/05/01 00:18:27;;;;;;;26.00;16.53;;;7.20;99.90;;;7.66;64.92;93766.59;5068143;28;20180;-66
2021/05/01 00:20:53;;;;;;;26.37;16.33;;;7.10;99.90;;;7.69;65.25;93755.56;5054824;28;20218;-67
2021/05/01 00:23:19;;;;;;;25.20;16.60;;;7.10;99.90;;;7.70;64.90;93753.72;5053199;28;20209;-66
2021/05/01 00:25:45;;;;;;;28.17;18.30;;;7.30;99.90;;;7.66;65.73;93760.53;5066201;28;20245;-68
2021/05/01 00:28:11;;;;;;;29.43;16.40;;;7.10;99.90;;;7.77;65.92;93749.03;5058024;28;20646;-68
2021/05/01 00:30:39;;;;;;;26.70;16.33;;;7.20;99.90;;;7.78;65.22;93748.00;5091191;28;20182;-67
2021/05/01 00:33:09;;;;;;;25.40;16.27;;;7.20;99.90;;;7.82;65.19;93761.47;5076695;28;20185;-69
2021/05/01 00:35:35;;;;;;;18.10;14.30;;;7.30;99.90;;;7.69;64.65;93746.84;5064832;28;20248;-67
2021/05/01 00:38:04;;;;;;;15.70;13.93;;;7.20;99.90;;;7.66;65.72;93740.22;5065005;28;20258;-67
2021/05/01 00:40:34;;;;;;;16.50;13.60;;;7.20;99.90;;;7.58;65.36;93745.16;5075605;28;20183;-68
2021/05/01 00:43:00;;;;;;;18.07;14.00;;;7.10;99.90;;;7.46;65.23;93739.25;5078049;28;20197;-67
2021/05/01 00:45:26;;;;;;;20.50;13.87;;;7.00;99.90;;;7.58;65.71;93742.53;5064478;28;20646;-65
2021/05/01 00:47:54;;;;;;;22.83;14.73;;;7.00;99.90;;;7.50;65.79;93735.06;5091955;28;20268;-67
2021/05/01 00:50:20;;;;;;;25.63;15.30;;;7.00;99.90;;;7.53;65.90;93737.19;5059308;28;20260;-68
2021/05/01 00:52:49;;;;;;;24.63;14.90;;;6.90;99.90;;;7.47;65.95;93748.75;5064398;28;20194;-66
2021/05/01 00:55:17;;;;;;;24.53;15.43;;;6.90;99.90;;;7.43;65.52;93745.00;5067412;28;20618;-68
2021/05/01 00:57:43;;;;;;;23.97;15.53;;;6.90;99.90;;;7.43;66.09;93740.53;5085069;28;20327;-67
2021/05/01 01:00:30;;;;;;;23.37;14.70;;;6.90;99.90;;;7.57;65.98;93744.38;5056322;28;20191;-67
2021/05/01 01:02:57;;;;;;;23.50;15.00;;;6.90;99.90;;;7.46;65.68;93733.97;5070607;28;20692;-65
2021/05/01 01:05:26;;;;;;;32.77;16.43;;;6.90;99.90;;;7.50;65.78;93746.41;5066573;28;20249;-67
2021/05/01 01:07:52;;;;;;;30.90;17.37;;;6.90;99.90;;;7.47;66.16;93732.94;5074195;28;20563;-67
2021/05/01 01:10:19;;;;;;;22.50;14.93;;;6.90;99.90;;;7.59;65.76;93741.47;5064247;28;20278;-67
2021/05/01 01:12:45;;;;;;;25.40;15.13;;;7.00;99.90;;;7.62;65.89;93733.09;5082746;28;20193;-65
2021/05/01 01:15:22;;;;;;;34.47;16.47;;;7.10;99.90;;;7.68;65.78;93729.44;5068160;28;20307;-66
2021/05/01 01:17:50;;;;;;;33.03;15.67;;;7.10;99.90;;;7.66;66.44;93726.25;5088398;28;20311;-65
2021/05/01 01:20:17;;;;;;;26.50;15.77;;;7.10;99.90;;;7.63;66.38;93724.91;5055701;28;20189;-67
2021/05/01 01:22:43;;;;;;;31.00;16.40;;;7.10;99.90;;;7.44;66.10;93736.06;5084802;28;20632;-69
2021/05/01 01:25:12;;;;;;;27.27;15.27;;;6.90;99.90;;;7.48;66.31;93734.53;5068394;28;20198;-65
2021/05/01 01:27:39;;;;;;;27.67;14.60;;;6.90;99.90;;;7.59;66.80;93736.19;5039286;28;20276;-66
2021/05/01 01:30:08;;;;;;;30.70;15.73;;;7.00;99.90;;;7.44;66.30;93730.78;5076493;28;20190;-67
2021/05/01 01:32:37;;;;;;;33.53;14.47;;;6.90;99.90;;;7.49;66.30;93729.00;5079058;28;20630;-66
2021/05/01 01:35:06;;;;;;;29.07;14.83;;;6.90;99.90;;;7.47;66.62;93719.75;5076347;28;20223;-67
2021/05/01 01:37:33;;;;;;;29.17;15.13;;;6.90;99.90;;;7.49;66.73;93725.56;5060059;28;20175;-67
2021/05/01 01:40:01;;;;;;;24.27;14.27;;;6.90;99.90;;;7.52;65.93;93717.16;5072569;28;20190;-67
2021/05/01 01:42:31;;;;;;;24.97;14.40;;;6.90;99.90;;;7.55;66.60;93729.84;5074897;28;20756;-67
2021/05/01 01:44:57;;;;;;;23.13;13.60;;;7.00;99.90;;;7.62;67.01;93719.91;5072385;28;20175;-67
2021/05/01 01:47:23;;;;;;;22.70;14.63;;;7.00;99.90;;;7.54;66.99;93729.06;5086373;28;20194;-66
2021/05/01 01:49:49;;;;;;;32.57;15.77;;;7.00;99.90;;;7.51;66.83;93715.56;5092069;28;20183;-66
2021/05/01 01:52:15;;;;;;;26.67;15.20;;;7.00;99.90;;;7.47;66.99;93717.09;5068175;28;20696;-67
2021/05/01 01:54:41;;;;;;;69.83;16.87;;;6.90;99.90;;;7.52;66.78;93712.66;5053647;28;20242;-65
2021/05/01 01:57:11;;;;;;;74.50;17.13;;;6.90;99.90;;;7.44;67.17;93715.78;5051898;28;20210;-66
2021/05/01 01:59:38;;;;;;;189.53;19.73;;;6.90;99.90;;;7.52;66.63;93715.31;5062467;28;20263;-66
2021/05/01 02:02:04;;;;;;;91.70;18.27;;;6.90;99.90;;;7.46;66.62;93705.75;5087870;28;20193;-68
2021/05/01 02:04:30;;;;;;;55.03;17.97;;;6.90;99.90;;;7.51;66.51;93703.19;5068676;28;20267;-67
2021/05/01 02:06:55;;;;;;;121.87;18.77;;;7.00;99.90;;;7.42;67.00;93693.34;5049498;28;20400;-67
2021/05/01 02:09:24;;;;;;;164.03;21.67;;;6.90;99.90;;;7.21;67.30;93701.06;5068585;28;20201;-66
2021/05/01 02:11:50;;;;;;;115.57;21.93;;;6.70;99.90;;;7.30;67.37;93690.84;5062119;28;20267;-66
2021/05/01 02:14:18;;;;;;;83.97;22.23;;;6.70;99.90;;;7.28;67.20;93692.16;5084233;28;20259;-66
2021/05/01 02:16:44;;;;;;;46.87;21.13;;;6.70;99.90;;;7.40;67.76;93671.69;5056374;28;20181;-66
2021/05/01 02:19:13;;;;;;;109.97;22.57;;;6.80;99.90;;;7.36;67.51;93662.69;5071692;28;20183;-66
2021/05/01 02:21:39;;;;;;;46.43;21.37;;;6.70;99.90;;;7.36;67.46;93662.69;5074584;28;20186;-68
2021/05/01 02:24:10;;;;;;;54.10;22.17;;;6.70;99.90;;;7.39;67.26;93676.16;5059941;28;20260;-66
2021/05/01 02:26:36;;;;;;;41.57;21.30;;;6.80;99.90;;;7.31;67.36;93665.28;5070282;28;20225;-68
2021/05/01 02:29:02;;;;;;;38.70;21.90;;;6.70;99.90;;;7.35;67.54;93671.66;5062095;28;20233;-67
2021/05/01 02:31:28;;;;;;;45.00;22.10;;;6.80;99.90;;;7.37;67.84;93670.38;5053531;28;20220;-65
2021/05/01 02:33:54;;;;;;;42.03;23.27;;;6.80;99.90;;;7.41;67.63;93665.38;5056315;28;20193;-67
2021/05/01 02:36:22;;;;;;;43.40;21.70;;;6.80;99.90;;;7.44;68.01;93660.41;5067058;28;20299;-65
2021/05/01 02:38:48;;;;;;;42.53;22.27;;;6.70;99.90;;;7.36;67.96;93641.59;5066418;28;20179;-68
2021/05/01 02:41:14;;;;;;;41.00;22.97;;;6.70;99.90;;;7.22;68.15;93638.59;5081809;28;20184;-67
2021/05/01 02:43:40;;;;;;;43.73;24.37;;;6.60;99.90;;;7.32;67.40;93640.53;5090170;28;20210;-66
2021/05/01 02:46:06;;;;;;;46.30;25.83;;;6.60;99.90;;;7.25;68.11;93632.03;5072925;28;20545;-68
2021/05/01 02:48:34;;;;;;;41.97;26.30;;;6.60;99.90;;;7.21;67.50;93640.44;5071627;28;20243;-67
2021/05/01 02:51:01;;;;;;;47.30;29.73;;;6.60;99.90;;;7.21;68.16;93640.44;5068816;28;20198;-67
2021/05/01 02:53:27;;;;;;;47.23;29.80;;;6.60;99.90;;;7.16;68.17;93637.75;5059183;28;20205;-69
2021/05/01 02:55:53;;;;;;;46.77;29.30;;;6.50;99.90;;;7.30;67.44;93639.97;5070454;28;20650;-67
2021/05/01 02:58:19;;;;;;;55.77;31.93;;;6.70;99.90;;;7.21;68.24;93640.44;5072309;28;20338;-66
2021/05/01 03:00:45;;;;;;;56.80;33.10;;;6.60;99.90;;;7.17;67.45;93638.56;5087371;28;20191;-67
2021/05/01 03:03:14;;;;;;;56.23;29.97;;;6.60;99.90;;;7.24;67.67;93633.88;5095644;28;20201;-68
2021/05/01 03:05:42;;;;;;;52.07;30.17;;;6.60;99.90;;;7.28;67.88;93636.81;5068714;28;20190;-67
2021/05/01 03:08:13;;;;;;;51.07;29.87;;;6.60;99.90;;;7.25;68.38;93624.94;5071173;28;20199;-68
2021/05/01 03:10:41;;;;;;;49.20;28.97;;;6.60;99.90;;;7.28;68.60;93629.69;5066103;28;20608;-68
2021/05/01 03:13:07;;;;;;;45.37;29.53;;;6.60;99.90;;;7.33;68.42;93647.38;5055297;28;20205;-65
2021/05/01 03:15:33;;;;;;;49.33;29.73;;;6.70;99.90;;;7.31;68.75;93650.28;5086856;28;20216;-67
2021/05/01 03:17:59;;;;;;;54.07;32.30;;;6.70;99.90;;;7.29;67.97;93649.72;5052814;28;20190;-67
2021/05/01 03:20:25;;;;;;;54.60;33.13;;;6.70;99.90;;;7.40;68.14;93645.34;5070642;28;20544;-66
2021/05/01 03:22:51;;;;;;;52.83;32.27;;;6.90;99.90;;;7.37;68.67;93638.72;5042247;28;20191;-69
2021/05/01 03:25:19;;;;;;;51.77;32.00;;;7.80;99.90;;;7.32;68.73;93641.31;5083825;28;20200;-66
2021/05/01 03:27:45;;;;;;;53.17;33.37;;;6.70;99.90;;;7.40;68.20;93648.78;5071041;28;20197;-68
2021/05/01 03:30:15;;;;;;;58.10;34.10;;;6.90;99.90;;;7.50;68.19;93650.69;5072086;28;20261;-65
2021/05/01 03:32:42;;;;;;;63.13;36.27;;;6.90;99.90;;;7.45;69.36;93642.75;5069733;28;20210;-67
2021/05/01 03:35:11;;;;;;;62.10;34.93;;;6.90;99.90;;;7.48;68.72;93645.69;5070436;28;20198;-67
2021/05/01 03:37:37;;;;;;;69.87;35.87;;;7.00;99.90;;;7.58;68.80;93629.94;5070296;28;20269;-66
2021/05/01 03:40:05;;;;;;;65.83;35.57;;;7.00;99.90;;;7.57;68.55;93633.63;5041028;28;20206;-69
2021/05/01 03:42:34;;;;;;;65.63;37.13;;;6.90;99.90;;;7.49;68.63;93630.63;5058989;28;20184;-67
2021/05/01 03:45:03;;;;;;;122.27;38.07;;;6.90;99.90;;;7.49;68.30;93620.91;5046904;28;20190;-66
2021/05/01 03:47:31;;;;;;;74.00;36.73;;;7.00;99.90;;;7.45;68.67;93611.91;5054849;28;20555;-66
2021/05/01 03:50:02;;;;;;;172.80;37.67;;;6.90;99.90;;;7.52;68.36;93614.34;5067945;28;20201;-67
2021/05/01 03:52:28;;;;;;;85.97;36.20;;;7.00;99.90;;;7.49;69.41;93626.16;5061959;28;20285;-66
2021/05/01 03:54:56;;;;;;;75.40;38.00;;;6.90;99.90;;;7.48;68.93;93634.34;5047490;28;20268;-66
2021/05/01 03:57:24;;;;;;;71.23;37.30;;;6.90;99.90;;;7.49;69.35;93635.91;5038261;28;20212;-67
2021/05/01 03:59:52;;;;;;;101.50;36.80;;;6.90;99.90;;;7.50;68.91;93617.22;5080446;28;20190;-66
2021/05/01 04:02:18;;;;;;;93.23;38.43;;;6.90;99.90;;;7.43;68.81;93602.66;5066130;28;20207;-69
2021/05/01 04:04:44;;;;;;;83.17;35.93;;;6.90;99.90;;;7.47;68.77;93596.63;5062894;28;20667;-67
2021/05/01 04:07:10;;;;;;;97.07;37.23;;;6.80;99.90;;;7.49;68.71;93591.88;5070997;28;20183;-66
2021/05/01 04:09:39;;;;;;;160.17;37.40;;;6.80;99.90;;;7.56;69.22;93574.00;5074141;28;20259;-67
2021/05/01 04:12:06;;;;;;;69.37;33.30;;;6.90;99.90;;;7.48;69.46;93563.97;5097853;28;20209;-65
2021/05/01 04:14:34;;;;;;;104.83;36.10;;;6.90;99.90;;;7.40;69.44;93567.06;5068370;28;20198;-67
2021/05/01 04:17:00;;;;;;;86.53;33.83;;;6.70;99.90;;;7.41;69.14;93570.50;5038320;28;20183;-66
2021/05/01 04:19:26;;;;;;;223.87;35.20;;;6.80;99.90;;;7.43;69.30;93563.91;5065974;28;20287;-68
2021/05/01 04:21:52;;;;;;;87.47;34.23;;;6.80;99.90;;;7.36;68.88;93565.16;5050347;28;20179;-66
2021/05/01 04:24:17;;;;;;;224.57;37.43;;;6.70;99.90;;;7.33;69.67;93566.47;5081270;28;20270;-64
2021/05/01 04:26:43;;;;;;;88.93;34.23;;;6.70;99.90;;;7.37;69.63;93550.94;5081113;28;20193;-64
2021/05/01 04:29:09;;;;;;;110.47;35.07;;;6.70;99.90;;;7.35;70.19;93550.41;5076861;28;20213;-66
2021/05/01 04:31:35;;;;;;;114.67;33.07;;;6.70;99.90;;;7.48;69.92;93556.06;5094572;28;20205;-65
2021/05/01 04:34:01;;;;;;;114.33;32.63;;;6.80;99.90;;;7.36;69.84;93559.88;5093347;28;20240;-66
2021/05/01 04:36:27;;;;;;;103.73;31.07;;;6.70;99.90;;;7.46;69.29;93579.22;5068634;28;20226;-66
2021/05/01 04:38:55;;;;;;;103.77;33.03;;;6.70;99.90;;;7.39;69.42;93575.19;5048181;28;20645;-67
2021/05/01 04:41:24;;;;;;;78.40;30.57;;;6.70;99.90;;;7.41;70.41;93584.47;5066958;28;20196;-67
2021/05/01 04:43:51;;;;;;;99.50;31.37;;;6.70;99.90;;;7.38;69.92;93584.19;5079570;28;20187;-67
2021/05/01 04:46:18;;;;;;;93.83;31.20;;;6.70;99.90;;;7.37;69.77;93567.56;5088780;28;20185;-66
2021/05/01 04:48:45;;;;;;;55.73;29.90;;;6.70;99.90;;;7.44;69.51;93580.53;5090569;28;20172;-67
2021/05/01 04:51:11;;;;;;;70.47;29.10;;;6.80;99.90;;;7.44;70.12;93573.41;5096504;28;20205;-70
2021/05/01 04:53:37;;;;;;;73.87;30.10;;;6.80;99.90;;;7.48;69.74;93568.44;5056681;28;20188;-71
2021/05/01 04:56:03;;;;;;;83.43;30.13;;;6.80;99.90;;;7.52;69.81;93572.94;5075424;28;20225;-67
2021/05/01 04:58:34;;;;;;;64.60;31.17;;;6.90;99.90;;;7.52;69.64;93566.88;5064674;28;20187;-68
2021/05/01 05:01:02;;;;;;;206.17;31.87;;;6.80;99.90;;;7.54;70.28;93572.69;5053904;28;20202;-69
2021/05/01 05:03:28;;;;;;;74.80;28.50;;;6.90;99.90;;;7.62;70.49;93572.22;5066889;28;20196;-68
2021/05/01 05:05:56;;;;;;;72.43;29.53;;;7.00;99.90;;;7.61;70.42;93571.44;5047616;28;20189;-67
2021/05/01 05:08:23;;;;;;;54.70;27.93;;;7.00;99.90;;;7.66;70.72;93579.34;5048848;28;20232;-66
2021/05/01 05:10:49;;;;;;;64.30;27.70;;;7.10;99.90;;;7.68;69.78;93573.84;5058113;28;20215;-70
2021/05/01 05:13:26;;;;;;;83.90;27.80;;;7.10;99.90;;;7.65;70.29;93580.44;5097372;27;20590;-68
2021/05/01 05:15:55;;;;;;;64.83;26.43;;;7.00;99.90;;;7.70;70.58;93590.19;5096080;28;20807;-67
2021/05/01 05:18:24;;;;;;;51.40;25.97;;;7.10;99.90;;;7.66;70.13;93581.19;5072917;28;20743;-67
2021/05/01 05:20:50;;;;;;;56.50;27.43;;;7.00;99.90;;;7.78;70.74;93576.53;5066971;28;20187;-68
2021/05/01 05:23:17;;;;;;;46.47;26.60;;;7.60;99.90;;;7.86;70.80;93578.69;5048691;28;20179;-68
2021/05/01 05:25:43;;;;;;;38.60;23.23;;;7.20;99.90;;;7.97;70.42;93566.34;5082063;28;20190;-71
2021/05/01 05:28:08;;;;;;;39.67;23.07;;;7.30;99.90;;;7.91;70.39;93567.38;5068619;28;20187;-67
2021/05/01 05:30:37;;;;;;;36.63;22.40;;;7.30;99.90;;;7.80;70.41;93566.50;5071536;28;20182;-67
2021/05/01 05:33:05;;;;;;;37.37;21.77;;;7.20;99.90;;;7.80;70.48;93563.06;5065395;28;20195;-68
2021/05/01 05:35:31;;;;;;;40.03;22.10;;;7.20;99.90;;;7.86;70.86;93570.75;5070487;28;20249;-68
2021/05/01 05:37:57;;;;;;;34.10;22.87;;;7.30;99.90;;;7.85;70.57;93569.19;5069805;28;20191;-68
2021/05/01 05:40:26;;;;;;;38.43;22.97;;;7.20;99.90;;;7.82;70.80;93585.53;5073294;28;20172;-67
2021/05/01 05:42:52;;;;;;;36.93;23.07;;;7.20;99.90;;;7.79;70.07;93569.44;5068341;28;20278;-67
2021/05/01 05:45:25;;;;;;;36.10;21.87;;;7.10;99.90;;;7.80;70.49;93574.44;5076034;28;20181;-69
2021/05/01 05:47:52;;;;;;;39.43;21.50;;;7.20;99.90;;;7.90;70.50;93574.50;5100767;27;20854;-67
2021/05/01 05:50:19;;;;;;;32.47;21.70;;;7.20;99.90;;;8.02;71.13;93574.28;5056499;28;20215;-67
2021/05/01 05:52:45;;;;;;;33.30;21.67;;;7.40;99.90;;;7.98;70.98;93574.00;5059168;28;20219;-68
2021/05/01 05:55:12;;;;;;;35.40;23.43;;;7.40;99.90;;;8.08;70.76;93581.19;5044456;28;20210;-67
2021/05/01 05:57:40;;;;;;;37.03;22.77;;;7.50;99.90;;;8.08;71.04;93565.34;5088028;28;20208;-66
2021/05/01 06:00:07;;;;;;;62.70;23.13;;;7.50;99.90;;;8.24;70.52;93570.44;5061198;28;20229;-69
2021/05/01 06:02:36;;;;;;;176.63;24.63;;;7.60;99.90;;;8.21;71.15;93554.31;5067102;28;20285;-67
2021/05/01 06:05:08;;;;;;;118.80;23.53;;;7.90;99.90;;;8.29;71.08;93572.34;5069543;28;20198;-67
2021/05/01 06:07:43;;;;;;;30.80;22.03;;;7.70;99.90;;;8.50;70.60;93568.69;5053458;28;20729;-66
2021/05/01 06:10:10;;;;;;;33.10;20.33;;;7.80;99.90;;;8.66;70.90;93561.63;5054191;28;20209;-67
2021/05/01 06:12:37;;;;;;;32.00;20.27;;;8.00;99.90;;;8.58;71.25;93536.50;5052851;28;20189;-70
2021/05/01 06:15:19;;;;;;;29.77;18.40;;;8.00;99.90;;;8.71;71.35;93548.44;5051311;28;20833;-68
2021/05/01 06:17:47;;;;;;;27.37;18.93;;;8.10;99.90;;;8.77;70.99;93561.38;5066489;28;20726;-67
2021/05/01 06:20:14;;;;;;;24.63;17.23;;;8.10;99.90;;;8.75;71.12;93565.34;5068648;28;20182;-67
2021/05/01 06:22:41;;;;;;;29.50;18.00;;;8.20;99.90;;;8.84;71.24;93565.63;5052042;28;20547;-69
2021/05/01 06:25:11;;;;;;;25.10;17.43;;;8.20;99.90;;;8.75;71.02;93560.06;5070354;28;20777;-66
2021/05/01 06:27:40;;;;;;;30.30;16.23;;;8.20;99.90;;;8.67;71.56;93552.63;5070372;28;20212;-68
2021/05/01 06:30:12;;;;;;;29.73;16.67;;;8.20;99.90;;;8.63;71.21;93552.38;5068961;28;20234;-65
2021/05/01 06:32:39;;;;;;;42.10;32.50;;;8.10;99.90;;;8.74;71.32;93553.19;5058704;28;20181;-67
2021/05/01 06:35:06;;;;;;;43.70;29.83;;;8.20;99.90;;;8.79;71.26;93547.91;5064451;28;20226;-69
2021/05/01 06:37:34;;;;;;;31.63;20.67;;;8.30;99.90;;;8.89;71.50;93547.13;5045019;28;20207;-67
2021/05/01 06:40:07;;;;;;;31.30;18.40;;;8.30;99.90;;;9.05;70.91;93559.31;5057527;28;20853;-66
2021/05/01 06:42:38;;;;;;;39.47;17.73;;;8.50;99.90;;;9.06;71.22;93539.75;5068810;28;20220;-67
2021/05/01 06:45:12;;;;;;;22.70;15.90;;;8.60;99.90;;;9.03;71.14;93546.34;5054402;28;20190;-68
2021/05/01 06:47:52;;;;;;;28.77;17.03;;;8.50;99.90;;;8.88;71.39;93549.00;5071982;28;20590;-68
2021/05/01 06:50:26;;;;;;;33.67;16.23;;;8.40;99.90;;;8.85;71.12;93554.78;5064207;28;20187;-67
2021/05/01 06:52:56;;;;;;;28.13;15.87;;;8.30;99.90;;;8.84;71.42;93555.84;5061931;28;20587;-68
2021/05/01 06:55:29;;;;;;;26.57;15.70;;;8.30;99.90;;;8.84;71.21;93550.56;5045065;28;20230;-68
2021/05/01 06:57:57;;;;;;;25.93;16.47;;;8.30;99.90;;;8.92;71.13;93555.34;5055859;28;20271;-68
2021/05/01 07:00:25;;;;;;;26.23;15.60;;;8.30;99.90;;;9.03;71.18;93525.19;5066890;28;20182;-68
2021/05/01 07:03:02;;;;;;;25.67;16.23;;;8.40;99.90;;;9.11;71.01;93537.09;5068947;28;20719;-70
2021/05/01 07:05:31;;;;;;;28.87;17.40;;;8.50;99.90;;;9.13;71.17;93538.41;5060852;28;20197;-68
2021/05/01 07:07:58;;;;;;;25.27;16.20;;;8.50;99.90;;;9.16;71.67;93542.41;5075201;28;20258;-68
2021/05/01 07:10:24;;;;;;;31.77;15.07;;;8.60;99.90;;;9.33;71.47;93553.53;5090920;27;20266;-70
2021/05/01 07:12:50;;;;;;;24.37;15.63;;;8.70;99.90;;;9.38;71.25;93537.63;5065956;28;20231;-67
2021/05/01 07:15:18;;;;;;;23.80;15.93;;;8.80;99.90;;;9.65;71.26;93555.84;5073803;28;20225;-67
2021/05/01 07:17:53;;;;;;;23.37;15.70;;;9.00;99.90;;;9.69;71.49;93554.28;5066331;28;20180;-68
2021/05/01 07:20:23;;;;;;;22.10;16.00;;;9.10;99.90;;;9.61;71.37;93536.28;5086212;28;20185;-69
2021/05/01 07:22:51;;;;;;;26.77;15.97;;;9.10;99.90;;;9.52;71.84;93553.75;5062479;28;20298;-67
2021/05/01 07:25:18;;;;;;;22.87;15.83;;;9.00;99.90;;;9.71;71.62;93555.59;5056990;28;20190;-67
2021/05/01 07:28:16;;;;;;;23.43;15.53;;;9.20;99.90;;;9.82;71.61;93539.69;5064054;28;20184;-68
2021/05/01 07:30:50;;;;;;;25.83;15.33;;;9.30;99.90;;;9.69;71.89;93543.69;5059578;28;20229;-67
2021/05/01 07:33:31;;;;;;;23.90;16.77;;;9.20;99.90;;;9.76;71.60;93566.19;5066570;28;20177;-68
2021/05/01 07:36:08;;;;;;;22.60;16.73;;;9.20;99.90;;;9.86;71.44;93549.47;5076359;28;20701;-68
2021/05/01 07:38:40;;;;;;;22.53;16.77;;;9.30;99.90;;;9.80;71.51;93538.09;5060339;28;20212;-68
2021/05/01 07:41:07;;;;;;;24.60;16.60;;;9.40;99.90;;;9.76;71.55;93554.78;5052374;28;20194;-68
2021/05/01 07:43:36;;;;;;;27.60;16.60;;;9.30;99.90;;;9.86;71.68;93554.78;5084428;28;20243;-67
2021/05/01 07:46:06;;;;;;;29.50;17.40;;;9.50;99.90;;;9.95;71.80;93552.34;5069470;28;20330;-69
2021/05/01 07:48:36;;;;;;;27.70;18.77;;;9.50;99.90;;;9.85;71.82;93545.25;5059576;28;20293;-68
2021/05/01 07:51:05;;;;;;;28.80;19.63;;;9.50;99.90;;;10.07;71.67;93556.28;5052324;28;20188;-69
2021/05/01 07:53:31;;;;;;;29.70;18.20;;;9.60;99.90;;;10.10;71.66;93550.47;5062208;28;20187;-71
2021/05/01 07:55:57;;;;;;;26.50;17.37;;;9.70;99.90;;;10.08;71.64;93551.78;5058044;28;20212;-68
2021/05/01 07:58:25;;;;;;;32.70;18.27;;;9.70;99.90;;;10.07;71.89;93548.34;5093507;28;20184;-69
2021/05/01 08:00:51;;;;;;;29.40;19.53;;;9.70;99.90;;;10.10;71.78;93542.53;5075451;28;20182;-68
2021/05/01 08:03:22;;;;;;;24.83;18.07;;;9.70;99.90;;;10.07;71.77;93545.69;5094489;28;20205;-69
2021/05/01 08:05:50;;;;;;;25.63;18.13;;;9.90;99.90;;;10.22;71.62;93553.63;5043963;28;20205;-68
2021/05/01 08:08:16;;;;;;;30.73;19.70;;;9.80;99.90;;;10.32;71.48;93547.50;5096112;28;20185;-68
2021/05/01 08:10:43;;;;;;;24.63;17.80;;;9.90;99.90;;;10.34;71.65;93552.53;5069150;28;20566;-69
2021/05/01 08:13:09;;;;;;;24.57;17.30;;;9.90;99.90;;;10.30;71.75;93547.00;5072994;28;20192;-68
2021/05/01 08:15:37;;;;;;;23.47;17.30;;;9.90;99.90;;;10.22;71.84;93542.25;5064317;28;20262;-67
2021/05/01 08:18:05;;;;;;;23.70;18.00;;;9.90;99.90;;;10.16;71.91;93538.03;5066307;28;20691;-68
2021/05/01 08:20:31;;;;;;;26.47;17.67;;;9.80;99.90;;;10.04;71.52;93556.81;5083221;28;20176;-69
2021/05/01 08:22:57;;;;;;;22.70;17.07;;;9.70;99.90;;;10.03;71.48;93560.56;5088502;28;20189;-68
2021/05/01 08:25:24;;;;;;;24.40;18.23;;;9.70;99.90;;;10.10;71.74;93562.91;5096729;28;20246;-70
2021/05/01 08:27:50;;;;;;;25.03;19.43;;;9.70;99.90;;;10.23;71.57;93565.81;5065875;28;20186;-66
2021/05/01 08:30:17;;;;;;;22.13;17.53;;;9.80;99.90;;;10.16;71.67;93564.50;5076829;28;20208;-67
2021/05/01 08:32:46;;;;;;;26.40;19.83;;;9.80;99.90;;;10.13;71.72;93557.88;5063651;28;20189;-67
2021/05/01 08:35:19;;;;;;;24.67;19.00;;;9.80;99.90;;;10.06;71.80;93567.97;5085111;28;20299;-68
2021/05/01 08:37:46;;;;;;;26.13;20.50;;;9.70;99.90;;;10.09;71.70;93564.78;5079524;28;20187;-66
2021/05/01 08:40:17;;;;;;;25.80;19.80;;;9.70;99.90;;;10.21;71.84;93570.56;5061760;28;20213;-69
2021/05/01 08:42:46;;;;;;;25.17;19.87;;;9.80;99.90;;;10.24;71.84;93577.22;5057430;28;20182;-69
2021/05/01 08:45:17;;;;;;;25.77;20.10;;;9.80;99.90;;;10.31;71.84;93571.63;5095616;28;20184;-71
2021/05/01 08:47:50;;;;;;;29.00;21.17;;;9.90;99.90;;;10.27;71.71;93566.06;5053672;28;20203;-71
2021/05/01 08:50:30;;;;;;;26.50;21.13;;;9.90;99.90;;;10.27;71.69;93574.78;5082995;28;20223;-66
2021/05/01 08:53:04;;;;;;;30.57;22.03;;;9.90;99.90;;;10.26;72.00;93569.78;5096317;28;20296;-66
2021/05/01 08:55:34;;;;;;;29.20;22.27;;;9.90;99.90;;;10.29;71.68;93561.28;5066451;28;20199;-66
2021/05/01 08:58:03;;;;;;;27.57;20.87;;;9.90;99.90;;;10.33;71.82;93564.19;5075994;28;20189;-67
2021/05/01 09:00:31;;;;;;;34.03;22.50;;;9.90;99.90;;;10.36;71.84;93555.69;5052766;28;20204;-68
2021/05/01 09:03:01;;;;;;;33.60;22.00;;;10.00;99.90;;;10.37;71.71;93562.59;5079392;28;20183;-68
2021/05/01 09:05:28;;;;;;;35.67;21.03;;;10.00;99.90;;;10.39;71.76;93568.41;5074150;28;20641;-66
2021/05/01 09:07:54;;;;;;;29.07;21.73;;;10.00;99.90;;;10.32;71.85;93563.41;5074580;28;20654;-69
2021/05/01 09:10:20;;;;;;;30.03;22.07;;;10.00;99.90;;;10.36;72.10;93569.75;5058113;28;20498;-68
2021/05/01 09:12:50;;;;;;;29.43;22.07;;;10.00;99.90;;;10.34;71.86;93576.38;5074662;28;20184;-68
2021/05/01 09:15:24;;;;;;;31.43;21.53;;;9.90;99.90;;;10.18;71.87;93565.81;5060380;28;20212;-68
2021/05/01 09:18:01;;;;;;;29.40;21.27;;;9.80;99.90;;;10.14;71.53;93582.53;5075940;28;20222;-68
2021/05/01 09:20:28;;;;;;;28.87;22.07;;;9.70;99.90;;;10.22;71.93;93566.88;5075527;28;20239;-68
2021/05/01 09:23:06;;;;;;;32.40;22.37;;;9.80;99.90;;;10.31;71.85;93577.69;5074572;28;20537;-68
2021/05/01 09:25:59;;;;;;;30.87;22.83;;;9.80;99.90;;;10.45;71.88;93568.09;5074190;28;20631;-68
2021/05/01 09:28:49;;;;;;;27.93;21.10;;;10.00;99.90;;;10.53;71.84;93574.72;5072836;28;20188;-67
2021/05/01 09:31:19;;;;;;;27.93;20.07;;;10.00;99.90;;;10.56;71.80;93566.22;5069746;28;20222;-67
2021/05/01 09:33:51;;;;;;;28.03;20.67;;;10.10;99.90;;;10.64;72.01;93565.66;5072211;28;20195;-67
2021/05/01 09:36:22;;;;;;;27.80;20.90;;;10.20;99.90;;;10.70;71.80;93568.00;5073994;28;20297;-67
2021/05/01 09:39:07;;;;;;;27.83;21.03;;;10.30;99.90;;;10.75;71.99;93586.53;5079859;28;20647;-67
2021/05/01 09:41:39;;;;;;;28.57;20.30;;;10.30;99.90;;;10.78;72.02;93580.66;5062553;28;20616;-66
2021/05/01 09:44:19;;;;;;;25.40;20.60;;;10.40;99.90;;;10.63;71.83;93575.47;5057458;28;20220;-68
2021/05/01 09:46:52;;;;;;;28.37;19.87;;;10.20;99.90;;;10.65;71.76;93580.47;5055824;28;20184;-67
2021/05/01 09:49:29;;;;;;;25.90;19.87;;;10.30;99.90;;;10.57;71.68;93571.25;5061594;28;20205;-68
2021/05/01 09:52:00;;;;;;;26.87;21.37;;;10.20;99.90;;;10.65;71.68;93561.91;5037228;28;20282;-70
2021/05/01 09:54:29;;;;;;;27.00;21.60;;;10.20;99.90;;;10.65;72.05;93562.72;5073463;28;20213;-67
2021/05/01 09:57:04;;;;;;;28.63;21.03;;;10.30;99.90;;;10.51;71.98;93555.66;5091852;28;20187;-67
2021/05/01 09:59:55;;;;;;;26.67;20.93;;;10.20;99.90;;;10.43;71.78;93564.16;5091698;28;20167;-69
2021/05/01 10:02:37;;;;;;;25.33;20.13;;;10.10;99.90;;;10.46;71.96;93568.91;5048664;28;20190;-68
2021/05/01 10:05:12;;;;;;;26.07;20.17;;;10.00;99.90;;;10.43;71.82;93569.44;5056898;28;20201;-67
2021/05/01 10:07:50;;;;;;;25.13;20.57;;;10.00;99.90;;;10.31;72.03;93572.41;5057114;28;20308;-68
2021/05/01 10:10:16;;;;;;;29.73;20.63;;;9.90;99.90;;;10.47;71.82;93565.19;5073483;28;20181;-68
2021/05/01 10:12:44;;;;;;;26.60;19.70;;;10.00;99.90;;;10.53;71.87;93564.09;5073908;28;20181;-67
2021/05/01 10:15:24;;;;;;;27.37;19.73;;;10.20;99.90;;;10.67;71.74;93560.59;5091172;28;20249;-68
2021/05/01 10:17:51;;;;;;;26.23;20.03;;;10.30;99.90;;;10.65;71.76;93546.81;5053034;28;20208;-67
2021/05/01 10:20:21;;;;;;;28.30;21.20;;;10.20;99.90;;;10.49;71.80;93536.56;5073101;28;20261;-67
2021/05/01 10:22:54;;;;;;;29.80;21.23;;;10.10;99.90;;;10.42;71.90;93557.25;5062349;28;20249;-68